EDW2A EDDL-EDDF
Flight info
| Callsign | EDW2A |
|---|---|
| Flight time | 0h 26m |
| Altitude | 23000 |
| Route | COL5Z COL T911 ROLIS ROLIS5A |
| Aircraft | A320/M-SDE3FGHIRWY/LB1 |
Departure
| Time | 2026-05-05 13:22 |
|---|---|
| Airport | Düsseldorf Airport (EDDL) |
Arrival
| Time | 2026-05-05 13:49 |
|---|---|
| Airport | Frankfurt Main Airport (EDDF) |
| Time | Latitude | Longitude | Altitude | Speed | Heading |
|---|---|---|---|---|---|
| 2026-05-05 13:06 | 51.28108 | 6.76546 | 125 ft | 0 kts | 96° |
| 2026-05-05 13:06 | 51.28109 | 6.76538 | 124 ft | 0 kts | 96° |
| 2026-05-05 13:13 | 51.28110 | 6.76527 | 128 ft | 4 kts | 95° |
| 2026-05-05 13:14 | 51.28110 | 6.76485 | 126 ft | 4 kts | 85° |
| 2026-05-05 13:14 | 51.28105 | 6.76444 | 125 ft | 4 kts | 59° |
| 2026-05-05 13:14 | 51.28092 | 6.76423 | 125 ft | 4 kts | 341° |
| 2026-05-05 13:14 | 51.28087 | 6.76425 | 126 ft | 0 kts | 327° |
| 2026-05-05 13:16 | 51.28089 | 6.76424 | 125 ft | 1 kts | 328° |
| 2026-05-05 13:16 | 51.28106 | 6.76405 | 125 ft | 2 kts | 323° |
| 2026-05-05 13:17 | 51.28133 | 6.76351 | 127 ft | 11 kts | 301° |
| 2026-05-05 13:17 | 51.28184 | 6.76253 | 125 ft | 11 kts | 320° |
| 2026-05-05 13:17 | 51.28195 | 6.76159 | 125 ft | 9 kts | 237° |
| 2026-05-05 13:17 | 51.28162 | 6.76090 | 124 ft | 7 kts | 232° |
| 2026-05-05 13:18 | 51.28134 | 6.76033 | 128 ft | 8 kts | 232° |
| 2026-05-05 13:18 | 51.28086 | 6.75930 | 127 ft | 13 kts | 233° |
| 2026-05-05 13:18 | 51.28035 | 6.75824 | 128 ft | 11 kts | 233° |
| 2026-05-05 13:18 | 51.27990 | 6.75729 | 129 ft | 10 kts | 233° |
| 2026-05-05 13:19 | 51.27930 | 6.75601 | 129 ft | 19 kts | 233° |
| 2026-05-05 13:19 | 51.27856 | 6.75444 | 127 ft | 14 kts | 233° |
| 2026-05-05 13:19 | 51.27842 | 6.75410 | 124 ft | 2 kts | 239° |
| 2026-05-05 13:19 | 51.27835 | 6.75390 | 124 ft | 2 kts | 241° |
| 2026-05-05 13:20 | 51.27834 | 6.75364 | 125 ft | 5 kts | 281° |
| 2026-05-05 13:20 | 51.27917 | 6.75288 | 121 ft | 22 kts | 337° |
| 2026-05-05 13:20 | 51.27997 | 6.75269 | 123 ft | 4 kts | 34° |
| 2026-05-05 13:20 | 51.27998 | 6.75272 | 123 ft | 0 kts | 51° |
| 2026-05-05 13:21 | 51.28032 | 6.75352 | 122 ft | 33 kts | 53° |
| 2026-05-05 13:22 | 51.28324 | 6.75961 | 129 ft | 101 kts | 52° |
| 2026-05-05 13:22 | 51.28862 | 6.77088 | 132 ft | 155 kts | 52° |
| 2026-05-05 13:22 | 51.29500 | 6.78480 | 681 ft | 151 kts | 50° |
| 2026-05-05 13:22 | 51.30124 | 6.79817 | 1306 ft | 154 kts | 50° |
| 2026-05-05 13:23 | 51.30808 | 6.81251 | 1773 ft | 173 kts | 50° |
| 2026-05-05 13:23 | 51.31587 | 6.82875 | 2054 ft | 197 kts | 52° |
| 2026-05-05 13:23 | 51.32476 | 6.84731 | 2417 ft | 222 kts | 52° |
| 2026-05-05 13:23 | 51.33460 | 6.86804 | 2799 ft | 246 kts | 53° |
| 2026-05-05 13:24 | 51.35127 | 6.94045 | 4827 ft | 270 kts | 94° |
| 2026-05-05 13:24 | 51.33925 | 7.06171 | 8252 ft | 282 kts | 101° |
| 2026-05-05 13:24 | 51.31234 | 7.17564 | 11314 ft | 288 kts | 143° |
| 2026-05-05 13:24 | 51.22699 | 7.22024 | 12489 ft | 361 kts | 165° |
| 2026-05-05 13:25 | 51.13397 | 7.27334 | 15154 ft | 379 kts | 149° |
| 2026-05-05 13:25 | 51.04338 | 7.35555 | 17574 ft | 391 kts | 152° |
| 2026-05-05 13:25 | 50.94671 | 7.43983 | 19695 ft | 402 kts | 152° |
| 2026-05-05 13:25 | 50.84763 | 7.52811 | 20383 ft | 429 kts | 152° |
| 2026-05-05 13:26 | 50.74377 | 7.61996 | 17549 ft | 430 kts | 152° |
| 2026-05-05 13:26 | 50.64408 | 7.70734 | 15371 ft | 404 kts | 152° |
| 2026-05-05 13:26 | 50.55131 | 7.78831 | 14914 ft | 402 kts | 152° |
| 2026-05-05 13:26 | 50.52691 | 7.80961 | 14285 ft | 402 kts | 152° |
| 2026-05-05 13:27 | 50.50245 | 7.83091 | 13491 ft | 405 kts | 152° |
| 2026-05-05 13:27 | 50.47827 | 7.85197 | 13328 ft | 388 kts | 152° |
| 2026-05-05 13:27 | 50.45512 | 7.87210 | 13037 ft | 376 kts | 152° |
| 2026-05-05 13:27 | 50.43238 | 7.89183 | 12492 ft | 371 kts | 152° |
| 2026-05-05 13:28 | 50.40992 | 7.91129 | 11910 ft | 367 kts | 152° |
| 2026-05-05 13:28 | 50.38763 | 7.93057 | 11322 ft | 364 kts | 152° |
| 2026-05-05 13:28 | 50.36555 | 7.94963 | 10735 ft | 361 kts | 152° |
| 2026-05-05 13:28 | 50.34358 | 7.96859 | 10396 ft | 360 kts | 152° |
| 2026-05-05 13:29 | 50.32192 | 7.98725 | 10252 ft | 348 kts | 152° |
| 2026-05-05 13:29 | 50.30112 | 8.00514 | 10136 ft | 333 kts | 152° |
| 2026-05-05 13:29 | 50.28157 | 8.02196 | 10015 ft | 319 kts | 152° |
| 2026-05-05 13:29 | 50.26358 | 8.04098 | 9897 ft | 307 kts | 139° |
| 2026-05-05 13:30 | 50.24974 | 8.06555 | 9782 ft | 296 kts | 128° |
| 2026-05-05 13:30 | 50.23743 | 8.09078 | 9570 ft | 288 kts | 129° |
| 2026-05-05 13:30 | 50.22537 | 8.11535 | 9499 ft | 285 kts | 129° |
| 2026-05-05 13:30 | 50.21326 | 8.13984 | 9434 ft | 285 kts | 129° |
| 2026-05-05 13:31 | 50.20113 | 8.16432 | 9372 ft | 284 kts | 129° |
| 2026-05-05 13:31 | 50.18906 | 8.18872 | 9308 ft | 284 kts | 129° |
| 2026-05-05 13:31 | 50.17717 | 8.21279 | 9242 ft | 284 kts | 129° |
| 2026-05-05 13:31 | 50.16516 | 8.23713 | 9160 ft | 283 kts | 129° |
| 2026-05-05 13:32 | 50.15311 | 8.26149 | 9089 ft | 283 kts | 129° |
| 2026-05-05 13:32 | 50.14106 | 8.28569 | 8996 ft | 282 kts | 129° |
| 2026-05-05 13:32 | 50.12903 | 8.30985 | 8919 ft | 282 kts | 129° |
| 2026-05-05 13:32 | 50.11706 | 8.33404 | 8838 ft | 281 kts | 127° |
| 2026-05-05 13:33 | 50.10811 | 8.36107 | 8757 ft | 283 kts | 109° |
| 2026-05-05 13:33 | 50.10496 | 8.39127 | 8669 ft | 285 kts | 91° |
| 2026-05-05 13:33 | 50.10793 | 8.42135 | 8583 ft | 287 kts | 73° |
| 2026-05-05 13:33 | 50.11490 | 8.45062 | 8478 ft | 288 kts | 71° |
| 2026-05-05 13:34 | 50.12192 | 8.47978 | 8395 ft | 287 kts | 71° |
| 2026-05-05 13:34 | 50.12887 | 8.50892 | 8310 ft | 287 kts | 71° |
| 2026-05-05 13:34 | 50.13580 | 8.53804 | 8215 ft | 287 kts | 71° |
| 2026-05-05 13:34 | 50.14272 | 8.56718 | 8135 ft | 286 kts | 71° |
| 2026-05-05 13:35 | 50.14962 | 8.59624 | 8055 ft | 286 kts | 71° |
| 2026-05-05 13:35 | 50.15654 | 8.62536 | 7854 ft | 287 kts | 71° |
| 2026-05-05 13:35 | 50.16342 | 8.65425 | 7546 ft | 284 kts | 71° |
| 2026-05-05 13:35 | 50.17015 | 8.68266 | 7252 ft | 282 kts | 71° |
| 2026-05-05 13:36 | 50.17695 | 8.71130 | 6957 ft | 281 kts | 71° |
| 2026-05-05 13:36 | 50.18374 | 8.73995 | 6530 ft | 281 kts | 71° |
| 2026-05-05 13:36 | 50.19047 | 8.76832 | 6278 ft | 278 kts | 71° |
| 2026-05-05 13:36 | 50.19717 | 8.79660 | 6017 ft | 278 kts | 71° |
| 2026-05-05 13:37 | 50.20362 | 8.82495 | 5747 ft | 276 kts | 76° |
| 2026-05-05 13:37 | 50.20497 | 8.85436 | 5363 ft | 272 kts | 100° |
| 2026-05-05 13:37 | 50.19960 | 8.88369 | 5156 ft | 281 kts | 109° |
| 2026-05-05 13:37 | 50.19541 | 8.91286 | 4713 ft | 281 kts | 98° |
| 2026-05-05 13:38 | 50.19327 | 8.94562 | 4357 ft | 329 kts | 96° |
| 2026-05-05 13:38 | 50.19145 | 8.98128 | 4250 ft | 321 kts | 91° |
| 2026-05-05 13:38 | 50.19653 | 9.01205 | 5013 ft | 274 kts | 64° |
| 2026-05-05 13:38 | 50.20526 | 9.03691 | 5161 ft | 253 kts | 62° |
| 2026-05-05 13:39 | 50.21358 | 9.06023 | 5053 ft | 241 kts | 62° |
| 2026-05-05 13:39 | 50.22162 | 9.08279 | 4899 ft | 234 kts | 62° |
| 2026-05-05 13:39 | 50.22935 | 9.10443 | 4930 ft | 236 kts | 62° |
| 2026-05-05 13:39 | 50.23685 | 9.12802 | 4920 ft | 235 kts | 76° |
| 2026-05-05 13:40 | 50.23799 | 9.15309 | 4930 ft | 232 kts | 103° |
| 2026-05-05 13:40 | 50.23179 | 9.17595 | 4928 ft | 229 kts | 129° |
| 2026-05-05 13:40 | 50.21997 | 9.19164 | 4932 ft | 227 kts | 155° |
| 2026-05-05 13:40 | 50.20484 | 9.19763 | 4932 ft | 226 kts | 181° |
| 2026-05-05 13:41 | 50.18961 | 9.19247 | 4931 ft | 226 kts | 207° |
| 2026-05-05 13:41 | 50.17742 | 9.17738 | 4924 ft | 227 kts | 232° |
| 2026-05-05 13:41 | 50.17045 | 9.15526 | 4936 ft | 232 kts | 250° |
| 2026-05-05 13:41 | 50.16531 | 9.13060 | 4930 ft | 243 kts | 255° |
| 2026-05-05 13:42 | 50.16132 | 9.10478 | 4935 ft | 246 kts | 253° |
| 2026-05-05 13:42 | 50.15613 | 9.07936 | 4933 ft | 246 kts | 249° |
| 2026-05-05 13:42 | 50.15038 | 9.05465 | 4934 ft | 246 kts | 248° |
| 2026-05-05 13:42 | 50.14441 | 9.02930 | 4937 ft | 253 kts | 249° |
| 2026-05-05 13:43 | 50.13834 | 9.00335 | 4934 ft | 255 kts | 249° |
| 2026-05-05 13:43 | 50.13234 | 8.97764 | 4938 ft | 256 kts | 249° |
| 2026-05-05 13:43 | 50.12616 | 8.95124 | 4940 ft | 257 kts | 249° |
| 2026-05-05 13:43 | 50.12003 | 8.92509 | 4818 ft | 257 kts | 249° |
| 2026-05-05 13:44 | 50.11393 | 8.89908 | 4527 ft | 255 kts | 249° |
| 2026-05-05 13:44 | 50.10794 | 8.87356 | 4195 ft | 252 kts | 249° |
| 2026-05-05 13:44 | 50.10210 | 8.84874 | 3860 ft | 248 kts | 249° |
| 2026-05-05 13:44 | 50.09758 | 8.82797 | 3594 ft | 245 kts | 256° |
| 2026-05-05 13:45 | 50.09352 | 8.80509 | 3325 ft | 238 kts | 246° |
| 2026-05-05 13:45 | 50.08708 | 8.78255 | 3007 ft | 217 kts | 246° |
| 2026-05-05 13:45 | 50.08165 | 8.76158 | 2741 ft | 202 kts | 249° |
| 2026-05-05 13:45 | 50.07699 | 8.74218 | 2494 ft | 182 kts | 249° |
| 2026-05-05 13:46 | 50.07284 | 8.72470 | 2261 ft | 162 kts | 249° |
| 2026-05-05 13:46 | 50.06914 | 8.70910 | 2039 ft | 148 kts | 249° |
| 2026-05-05 13:46 | 50.06564 | 8.69440 | 1820 ft | 143 kts | 248° |
| 2026-05-05 13:46 | 50.06228 | 8.68001 | 1686 ft | 141 kts | 249° |
| 2026-05-05 13:47 | 50.05893 | 8.66598 | 1489 ft | 140 kts | 249° |
| 2026-05-05 13:47 | 50.05564 | 8.65178 | 1294 ft | 139 kts | 249° |
| 2026-05-05 13:47 | 50.05224 | 8.63767 | 1092 ft | 138 kts | 249° |
| 2026-05-05 13:47 | 50.04888 | 8.62368 | 927 ft | 137 kts | 248° |
| 2026-05-05 13:48 | 50.04560 | 8.60987 | 700 ft | 136 kts | 247° |
| 2026-05-05 13:48 | 50.04244 | 8.59613 | 521 ft | 134 kts | 248° |
| 2026-05-05 13:48 | 50.03918 | 8.58258 | 380 ft | 132 kts | 246° |
| 2026-05-05 13:48 | 50.03648 | 8.57159 | 359 ft | 72 kts | 248° |
| 2026-05-05 13:49 | 50.03519 | 8.56614 | 356 ft | 48 kts | 249° |
| 2026-05-05 13:49 | 50.03437 | 8.56158 | 352 ft | 41 kts | 269° |
| 2026-05-05 13:49 | 50.03464 | 8.55834 | 353 ft | 25 kts | 278° |
| 2026-05-05 13:49 | 50.03492 | 8.55568 | 354 ft | 24 kts | 280° |
| 2026-05-05 13:50 | 50.03463 | 8.55349 | 349 ft | 21 kts | 246° |
| 2026-05-05 13:50 | 50.03416 | 8.55151 | 350 ft | 19 kts | 252° |
| 2026-05-05 13:50 | 50.03391 | 8.54993 | 350 ft | 15 kts | 282° |
| 2026-05-05 13:50 | 50.03447 | 8.54852 | 343 ft | 16 kts | 328° |
| 2026-05-05 13:51 | 50.03541 | 8.54796 | 350 ft | 13 kts | 339° |
| 2026-05-05 13:51 | 50.03623 | 8.54746 | 347 ft | 12 kts | 340° |
| 2026-05-05 13:51 | 50.03693 | 8.54706 | 348 ft | 9 kts | 339° |
| 2026-05-05 13:51 | 50.03731 | 8.54643 | 349 ft | 11 kts | 276° |
| 2026-05-05 13:52 | 50.03700 | 8.54493 | 348 ft | 17 kts | 251° |
| 2026-05-05 13:52 | 50.03714 | 8.54388 | 343 ft | 8 kts | 338° |
| 2026-05-05 13:52 | 50.03754 | 8.54363 | 347 ft | 5 kts | 338° |
| 2026-05-05 13:52 | 50.03784 | 8.54344 | 350 ft | 6 kts | 338° |
| 2026-05-05 13:53 | 50.03805 | 8.54236 | 349 ft | 15 kts | 247° |
| 2026-05-05 13:53 | 50.03778 | 8.54170 | 348 ft | 3 kts | 219° |
| 2026-05-05 13:53 | 50.03764 | 8.54149 | 355 ft | 3 kts | 236° |
| 2026-05-05 13:53 | 50.03753 | 8.54125 | 348 ft | 2 kts | 219° |
| 2026-05-05 13:54 | 50.03730 | 8.54124 | 351 ft | 4 kts | 174° |
| 2026-05-05 13:54 | 50.03706 | 8.54135 | 351 ft | 3 kts | 161° |
| 2026-05-05 13:54 | 50.03703 | 8.54136 | 350 ft | 0 kts | 160° |
| 2026-05-05 13:54 | 50.03703 | 8.54137 | 350 ft | 0 kts | 160° |